Time;durP1;ratioP1;P1;durP2;ratioP2;P2;SDS_P1;SDS_P2;PMS_P1;PMS_P2;Temp;Humidity;BMP_temperature;BMP_pressure;BME280_temperature;BME280_humidity;BME280_pressure;Samples;Min_cycle;Max_cycle;Signal;HPM_P1;HPM_P2
2023/12/13 00:01:39;;;;;;;0.70;0.70;;;;;;;11.10;100.00;98673.09;5008361;28;20037;-58
2023/12/13 00:04:04;;;;;;;0.80;0.80;;;;;;;11.07;100.00;98679.44;5010482;28;20083;-58
2023/12/13 00:06:30;;;;;;;0.70;0.70;;;;;;;11.08;100.00;98678.53;5011550;28;20529;-58
2023/12/13 00:08:56;;;;;;;0.80;0.80;;;;;;;11.07;100.00;98683.94;5011308;28;20025;-58
2023/12/13 00:11:21;;;;;;;0.70;0.70;;;;;;;11.11;100.00;98666.81;4997015;28;20037;-58
2023/12/13 00:13:46;;;;;;;0.70;0.70;;;;;;;11.08;100.00;98673.19;4992200;28;20036;-61
2023/12/13 00:16:12;;;;;;;0.80;0.80;;;;;;;11.16;100.00;98672.75;4991622;28;20114;-59
2023/12/13 00:18:37;;;;;;;0.70;0.70;;;;;;;11.17;100.00;98669.16;4991534;28;20807;-59
2023/12/13 00:21:03;;;;;;;0.70;0.70;;;;;;;11.20;100.00;98667.16;4995053;28;20173;-58
2023/12/13 00:23:28;;;;;;;0.70;0.70;;;;;;;11.22;100.00;98657.28;4992550;28;20045;-58
2023/12/13 00:25:54;;;;;;;0.70;0.70;;;;;;;11.27;100.00;98655.22;4994999;28;20134;-58
2023/12/13 00:28:19;;;;;;;0.70;0.70;;;;;;;11.31;100.00;98661.25;4992511;28;20117;-59
2023/12/13 00:30:45;;;;;;;0.70;0.70;;;;;;;11.29;100.00;98652.47;4994549;28;20025;-58
2023/12/13 00:33:11;;;;;;;0.60;0.60;;;;;;;11.33;100.00;98654.03;5011453;28;20013;-59
2023/12/13 00:35:37;;;;;;;0.60;0.60;;;;;;;11.34;100.00;98645.97;5011929;28;20054;-59
2023/12/13 00:38:03;;;;;;;0.70;0.70;;;;;;;11.32;100.00;98647.84;4998543;28;20092;-58
2023/12/13 00:40:29;;;;;;;0.70;0.70;;;;;;;11.39;100.00;98648.34;4994753;28;20088;-59
2023/12/13 00:42:55;;;;;;;0.70;0.70;;;;;;;11.40;100.00;98648.25;5011347;28;20446;-58
2023/12/13 00:45:21;;;;;;;0.70;0.70;;;;;;;11.39;100.00;98648.34;5008936;28;20359;-59
2023/12/13 00:47:47;;;;;;;0.77;0.77;;;;;;;11.40;100.00;98650.09;4992914;28;20026;-59
2023/12/13 00:50:12;;;;;;;0.60;0.60;;;;;;;11.38;100.00;98642.16;4990948;28;20093;-59
2023/12/13 00:52:38;;;;;;;0.70;0.70;;;;;;;11.42;100.00;98643.72;4993243;28;20104;-59
2023/12/13 00:55:04;;;;;;;0.70;0.70;;;;;;;11.41;100.00;98651.78;4990836;28;20089;-59
2023/12/13 00:57:32;;;;;;;0.80;0.80;;;;;;;11.43;100.00;98644.56;5006852;28;20037;-59
2023/12/13 00:59:58;;;;;;;0.70;0.70;;;;;;;11.43;100.00;98641.91;4991394;28;20026;-59
2023/12/13 01:02:24;;;;;;;0.70;0.70;;;;;;;11.42;100.00;98649.03;5009527;28;20064;-59
2023/12/13 01:04:50;;;;;;;0.70;0.70;;;;;;;11.50;100.00;98638.78;5011259;28;20627;-59
2023/12/13 01:07:15;;;;;;;0.70;0.70;;;;;;;11.50;100.00;98645.91;5008999;28;20109;-59
2023/12/13 01:09:40;;;;;;;0.60;0.60;;;;;;;11.53;100.00;98635.94;5011080;28;20061;-59
2023/12/13 01:12:06;;;;;;;0.60;0.60;;;;;;;11.59;100.00;98642.72;5011269;28;20076;-59
2023/12/13 01:14:35;;;;;;;0.70;0.70;;;;;;;11.59;100.00;98637.41;5010615;28;20053;-60
2023/12/13 01:17:00;;;;;;;0.70;0.70;;;;;;;11.61;100.00;98643.50;5001889;28;20053;-59
2023/12/13 01:19:26;;;;;;;0.70;0.70;;;;;;;11.55;100.00;98638.50;5002735;28;20105;-59
2023/12/13 01:21:52;;;;;;;0.70;0.70;;;;;;;11.58;100.00;98649.00;5010923;28;20037;-59
2023/12/13 01:24:18;;;;;;;0.70;0.70;;;;;;;11.56;100.00;98646.44;5011854;28;20030;-60
2023/12/13 01:26:44;;;;;;;0.70;0.70;;;;;;;11.62;100.00;98662.06;4997769;28;20034;-59
2023/12/13 01:29:09;;;;;;;0.70;0.70;;;;;;;11.60;100.00;98658.63;5008480;28;20030;-59
2023/12/13 01:31:35;;;;;;;0.70;0.70;;;;;;;11.66;100.00;98655.63;5010484;28;20022;-58
2023/12/13 01:34:02;;;;;;;0.70;0.70;;;;;;;11.67;100.00;98669.81;5010744;28;20546;-59
2023/12/13 01:36:28;;;;;;;0.70;0.70;;;;;;;11.65;100.00;98667.22;5002048;28;20477;-58
2023/12/13 01:38:53;;;;;;;0.70;0.70;;;;;;;11.65;100.00;98661.91;5009805;28;20084;-58
2023/12/13 01:41:19;;;;;;;0.70;0.70;;;;;;;11.63;100.00;98668.25;5009900;28;20510;-59
2023/12/13 01:43:45;;;;;;;0.70;0.70;;;;;;;11.62;100.00;98703.81;5007539;28;20014;-59
2023/12/13 01:46:12;;;;;;;0.80;0.80;;;;;;;11.63;100.00;98713.53;5000695;28;20026;-59
2023/12/13 01:48:38;;;;;;;0.70;0.70;;;;;;;11.50;100.00;98697.38;5009406;28;20020;-59
2023/12/13 01:51:03;;;;;;;0.70;0.70;;;;;;;11.47;100.00;98705.53;5009338;28;20441;-59
2023/12/13 01:53:30;;;;;;;0.60;0.60;;;;;;;11.35;100.00;98695.56;5003547;28;20036;-59
2023/12/13 01:55:55;;;;;;;0.70;0.70;;;;;;;11.20;100.00;98711.56;5009805;28;20030;-59
2023/12/13 01:58:22;;;;;;;0.70;0.70;;;;;;;11.07;100.00;98690.09;5009777;28;20084;-59
2023/12/13 02:00:48;;;;;;;0.70;0.70;;;;;;;11.12;100.00;98695.19;5008102;28;20026;-58
2023/12/13 02:03:14;;;;;;;0.70;0.70;;;;;;;11.26;100.00;98681.94;5004077;28;20037;-59
2023/12/13 02:05:42;;;;;;;0.70;0.70;;;;;;;11.33;100.00;98689.50;4990566;28;20394;-59
2023/12/13 02:08:08;;;;;;;0.70;0.70;;;;;;;11.37;100.00;98695.50;4993144;28;20363;-59
2023/12/13 02:10:33;;;;;;;0.70;0.70;;;;;;;11.34;100.00;98696.53;4990550;28;20030;-59
2023/12/13 02:12:59;;;;;;;0.70;0.70;;;;;;;11.30;100.00;98681.66;4993178;28;20030;-59
2023/12/13 02:15:25;;;;;;;0.70;0.70;;;;;;;11.33;100.00;98673.53;4990824;28;20026;-59
2023/12/13 02:17:52;;;;;;;0.70;0.70;;;;;;;11.36;100.00;98669.81;4990893;28;20061;-59
2023/12/13 02:20:18;;;;;;;0.70;0.70;;;;;;;11.34;100.00;98661.06;4990844;28;20109;-59
2023/12/13 02:22:43;;;;;;;0.70;0.70;;;;;;;11.36;100.00;98664.50;4993029;28;20026;-58
2023/12/13 02:25:15;;;;;;;0.70;0.70;;;;;;;11.31;100.00;98655.91;4990790;28;20112;-60
2023/12/13 02:27:41;;;;;;;0.70;0.70;;;;;;;11.26;100.00;98644.66;4992629;28;20370;-59
2023/12/13 02:30:09;;;;;;;0.70;0.70;;;;;;;11.24;100.00;98643.91;4990733;28;20030;-58
2023/12/13 02:32:34;;;;;;;0.73;0.73;;;;;;;11.19;100.00;98635.31;5004237;28;20022;-59
2023/12/13 02:35:00;;;;;;;0.70;0.70;;;;;;;11.18;100.00;98628.28;4996058;28;20517;-59
2023/12/13 02:37:25;;;;;;;0.68;0.68;;;;;;;11.16;100.00;98623.06;4989293;28;20128;-59
2023/12/13 02:39:51;;;;;;;0.70;0.70;;;;;;;11.13;100.00;98623.25;4991221;28;20622;-59
2023/12/13 02:42:17;;;;;;;0.70;0.70;;;;;;;11.13;100.00;98623.25;5000875;28;20025;-59
2023/12/13 02:44:43;;;;;;;0.70;0.70;;;;;;;11.18;100.00;98618.50;5006889;28;20116;-59
2023/12/13 02:47:09;;;;;;;0.70;0.70;;;;;;;11.20;100.00;98610.44;5007253;28;20034;-59
2023/12/13 02:49:35;;;;;;;0.80;0.80;;;;;;;11.22;100.00;98621.84;5008838;28;20030;-59
2023/12/13 02:52:01;;;;;;;0.70;0.70;;;;;;;11.24;100.00;98604.84;5005987;28;20041;-59
2023/12/13 02:54:26;;;;;;;0.70;0.70;;;;;;;11.23;100.00;98602.28;5009526;28;20119;-59
2023/12/13 02:56:51;;;;;;;0.70;0.70;;;;;;;11.24;100.00;98611.97;5007445;28;20036;-59
2023/12/13 02:59:17;;;;;;;0.70;0.70;;;;;;;11.23;100.00;98604.94;5009584;28;20036;-59
2023/12/13 03:01:42;;;;;;;0.80;0.80;;;;;;;11.24;100.00;98599.50;5009367;28;20034;-59
2023/12/13 03:04:08;;;;;;;0.70;0.70;;;;;;;11.24;100.00;98593.31;5009031;28;20033;-58
2023/12/13 03:06:33;;;;;;;0.70;0.70;;;;;;;11.22;100.00;98596.06;5007410;28;20029;-59
2023/12/13 03:08:59;;;;;;;0.80;0.80;;;;;;;11.21;100.00;98585.53;5008943;28;20032;-59
2023/12/13 03:11:24;;;;;;;0.70;0.70;;;;;;;11.23;100.00;98589.84;5009435;28;20481;-59
2023/12/13 03:13:50;;;;;;;0.70;0.70;;;;;;;11.22;100.00;98573.94;5010466;28;20034;-62
2023/12/13 03:16:16;;;;;;;0.70;0.70;;;;;;;11.30;100.00;98579.69;5014156;28;20030;-61
2023/12/13 03:18:41;;;;;;;0.70;0.70;;;;;;;11.34;100.00;98567.88;5022297;28;20030;-61
2023/12/13 03:21:06;;;;;;;0.70;0.70;;;;;;;11.35;100.00;98566.97;5025798;28;20120;-61
2023/12/13 03:23:32;;;;;;;0.60;0.60;;;;;;;11.38;100.00;98566.78;5025030;28;20038;-61
2023/12/13 03:25:57;;;;;;;0.80;0.80;;;;;;;11.38;100.00;98558.78;5017426;28;20021;-61
2023/12/13 03:28:23;;;;;;;0.70;0.70;;;;;;;11.39;100.00;98552.50;5024637;28;20028;-62
2023/12/13 03:30:48;;;;;;;0.70;0.70;;;;;;;11.41;100.00;98543.50;5012235;28;20154;-62
2023/12/13 03:33:14;;;;;;;0.70;0.70;;;;;;;11.40;100.00;98546.25;5024442;28;20022;-61
2023/12/13 03:35:39;;;;;;;0.60;0.60;;;;;;;11.38;100.00;98545.47;5022953;28;20045;-62
2023/12/13 03:38:06;;;;;;;0.70;0.70;;;;;;;11.36;100.00;98547.38;5023770;28;20056;-62
2023/12/13 03:40:32;;;;;;;0.60;0.60;;;;;;;11.37;100.00;98546.41;5024238;28;20030;-61
2023/12/13 03:42:57;;;;;;;0.70;0.70;;;;;;;11.35;100.00;98546.50;5027142;28;20037;-61
2023/12/13 03:45:24;;;;;;;0.70;0.70;;;;;;;11.38;100.00;98550.81;5029654;28;20041;-62
2023/12/13 03:47:49;;;;;;;0.70;0.70;;;;;;;11.39;100.00;98547.19;5029368;28;20030;-62
2023/12/13 03:50:15;;;;;;;0.70;0.70;;;;;;;11.39;100.00;98547.19;5028077;28;20033;-62
2023/12/13 03:52:40;;;;;;;0.70;0.70;;;;;;;11.40;100.00;98549.75;5028934;28;20051;-62
2023/12/13 03:55:07;;;;;;;0.70;0.70;;;;;;;11.38;100.00;98540.16;5013404;28;20320;-63
2023/12/13 03:57:32;;;;;;;0.70;0.70;;;;;;;11.39;100.00;98541.84;5027852;28;20034;-61
2023/12/13 03:59:58;;;;;;;0.65;0.65;;;;;;;11.42;100.00;98536.34;5026920;28;20029;-61
2023/12/13 04:02:23;;;;;;;0.70;0.70;;;;;;;11.42;100.00;98533.69;5026930;28;20045;-61
2023/12/13 04:04:49;;;;;;;0.80;0.80;;;;;;;11.44;100.00;98535.31;5027984;28;20077;-62
2023/12/13 04:07:14;;;;;;;0.60;0.60;;;;;;;11.50;100.00;98534.09;5028999;28;20029;-62
2023/12/13 04:09:39;;;;;;;0.80;0.80;;;;;;;11.52;100.00;98526.88;5019714;28;20022;-61
2023/12/13 04:12:05;;;;;;;0.70;0.70;;;;;;;11.48;100.00;98525.34;5011518;28;20022;-62
2023/12/13 04:14:31;;;;;;;0.70;0.70;;;;;;;11.48;100.00;98525.34;5015614;28;20018;-61
2023/12/13 04:16:56;;;;;;;0.70;0.70;;;;;;;11.52;100.00;98521.53;5012745;28;20030;-61
2023/12/13 04:19:22;;;;;;;0.70;0.70;;;;;;;11.51;100.00;98514.50;5012247;28;20030;-62
2023/12/13 04:21:47;;;;;;;0.70;0.70;;;;;;;11.48;100.00;98520.03;5028835;28;20041;-61
2023/12/13 04:24:12;;;;;;;0.70;0.70;;;;;;;11.48;100.00;98525.34;5028417;28;20089;-61
2023/12/13 04:26:39;;;;;;;0.70;0.70;;;;;;;11.45;100.00;98520.22;5019400;28;20024;-62
2023/12/13 04:29:04;;;;;;;0.80;0.80;;;;;;;11.48;100.00;98514.69;5008959;28;20044;-62
2023/12/13 04:31:30;;;;;;;0.70;0.70;;;;;;;11.47;100.00;98511.19;5012707;28;20053;-62
2023/12/13 04:33:55;;;;;;;0.70;0.70;;;;;;;11.48;100.00;98504.06;5027647;28;20026;-62
2023/12/13 04:36:21;;;;;;;0.70;0.70;;;;;;;11.50;100.00;98510.97;5028996;28;20108;-62
2023/12/13 04:38:47;;;;;;;0.70;0.70;;;;;;;11.49;100.00;98505.75;5029217;28;20060;-61
2023/12/13 04:41:13;;;;;;;0.70;0.70;;;;;;;11.49;100.00;98509.28;5024958;28;20030;-62
2023/12/13 04:43:38;;;;;;;0.70;0.70;;;;;;;11.45;100.00;98509.56;5021775;28;20022;-61
2023/12/13 04:46:04;;;;;;;0.70;0.70;;;;;;;11.44;100.00;98502.50;5029125;28;20049;-61
2023/12/13 04:48:29;;;;;;;0.70;0.70;;;;;;;11.45;100.00;98504.25;5011961;28;20030;-62
2023/12/13 04:50:54;;;;;;;0.70;0.70;;;;;;;11.44;100.00;98500.72;5008249;28;20065;-62
2023/12/13 04:53:20;;;;;;;0.70;0.70;;;;;;;11.42;100.00;98496.41;5011901;28;20100;-61
2023/12/13 04:55:45;;;;;;;0.70;0.70;;;;;;;11.34;100.00;98496.88;5028773;28;20038;-61
2023/12/13 04:58:11;;;;;;;0.70;0.70;;;;;;;11.39;100.00;98493.94;5029996;28;20041;-62
2023/12/13 05:00:36;;;;;;;0.70;0.70;;;;;;;11.41;100.00;98486.72;5019473;28;20030;-62
2023/12/13 05:03:01;;;;;;;0.80;0.80;;;;;;;11.35;100.00;98492.44;5029303;28;20110;-62
2023/12/13 05:05:27;;;;;;;0.60;0.60;;;;;;;11.36;100.00;98483.47;5029102;28;20025;-62
2023/12/13 05:07:52;;;;;;;0.70;0.70;;;;;;;11.31;100.00;98474.91;5025934;28;20036;-61
2023/12/13 05:10:18;;;;;;;0.70;0.70;;;;;;;11.28;100.00;98475.97;5027392;28;20390;-61
2023/12/13 05:12:43;;;;;;;0.70;0.70;;;;;;;11.38;100.00;98474.44;5028448;28;20017;-61
2023/12/13 05:15:08;;;;;;;0.70;0.70;;;;;;;11.38;100.00;98481.59;5014210;28;20030;-61
2023/12/13 05:17:34;;;;;;;0.70;0.70;;;;;;;11.36;100.00;98483.47;5015750;28;20018;-62
2023/12/13 05:20:00;;;;;;;0.80;0.80;;;;;;;11.33;100.00;98476.56;5028910;28;20034;-62
2023/12/13 05:22:25;;;;;;;0.70;0.70;;;;;;;11.29;100.00;98482.13;5027838;28;20045;-61
2023/12/13 05:24:51;;;;;;;0.70;0.70;;;;;;;11.26;100.00;98482.31;5026290;28;20173;-61
2023/12/13 05:27:16;;;;;;;0.75;0.75;;;;;;;11.27;100.00;98478.69;5027602;28;20063;-61
2023/12/13 05:29:43;;;;;;;0.70;0.70;;;;;;;11.25;100.00;98489.44;5026758;28;20032;-61
2023/12/13 05:32:09;;;;;;;0.70;0.70;;;;;;;11.21;100.00;98479.06;5024714;28;20082;-62
2023/12/13 05:34:34;;;;;;;0.70;0.70;;;;;;;11.17;100.00;98477.56;5007239;28;20080;-63
2023/12/13 05:37:05;;;;;;;0.70;0.70;;;;;;;11.12;100.00;98475.16;5008410;28;20049;-62
2023/12/13 05:39:30;;;;;;;0.70;0.70;;;;;;;11.14;100.00;98483.03;5008707;28;20030;-61
2023/12/13 05:41:56;;;;;;;0.70;0.70;;;;;;;11.11;100.00;98473.44;5010348;28;20086;-61
2023/12/13 05:44:22;;;;;;;0.70;0.70;;;;;;;11.09;100.00;98470.00;5019786;28;20085;-61
2023/12/13 05:46:48;;;;;;;0.70;0.70;;;;;;;11.07;100.00;98471.06;5024015;28;20022;-62
2023/12/13 05:49:13;;;;;;;0.70;0.70;;;;;;;11.07;100.00;98466.56;5008408;28;20034;-61
2023/12/13 05:51:39;;;;;;;0.63;0.63;;;;;;;11.07;100.00;98471.91;5012457;28;20018;-63
2023/12/13 05:54:04;;;;;;;0.65;0.65;;;;;;;11.07;100.00;98465.75;5023347;28;20722;-61
2023/12/13 05:56:30;;;;;;;0.70;0.70;;;;;;;11.08;100.00;98467.44;5019380;28;20041;-61
2023/12/13 05:58:55;;;;;;;0.70;0.70;;;;;;;11.08;100.00;98472.75;5028500;28;20037;-62
2023/12/13 06:01:22;;;;;;;0.70;0.70;;;;;;;11.09;100.00;98470.00;5023858;28;20045;-62
2023/12/13 06:03:47;;;;;;;0.60;0.60;;;;;;;11.15;100.00;98463.47;5026934;28;20030;-61
2023/12/13 06:06:13;;;;;;;0.60;0.60;;;;;;;11.18;100.00;98460.63;5027910;28;20025;-61
2023/12/13 06:08:40;;;;;;;0.73;0.73;;;;;;;11.18;100.00;98457.97;5026316;28;20108;-62
2023/12/13 06:11:05;;;;;;;0.70;0.70;;;;;;;11.19;100.00;98449.03;5023528;28;20036;-62
2023/12/13 06:13:30;;;;;;;0.70;0.70;;;;;;;11.19;100.00;98452.56;5026638;28;20018;-61
2023/12/13 06:15:56;;;;;;;0.70;0.70;;;;;;;11.16;100.00;98450.06;5022045;28;20085;-62
2023/12/13 06:18:21;;;;;;;0.80;0.80;;;;;;;11.13;100.00;98452.94;5026501;28;20038;-61
2023/12/13 06:20:47;;;;;;;0.70;0.70;;;;;;;11.07;100.00;98455.94;5025359;28;20017;-62
2023/12/13 06:23:12;;;;;;;0.80;0.80;;;;;;;11.08;100.00;98455.00;5010757;28;20034;-62
2023/12/13 06:25:37;;;;;;;0.80;0.80;;;;;;;11.01;100.00;98453.66;5008991;28;20029;-62
2023/12/13 06:28:04;;;;;;;0.70;0.70;;;;;;;11.01;100.00;98458.09;5024688;28;20049;-62
2023/12/13 06:30:29;;;;;;;0.70;0.70;;;;;;;11.03;100.00;98449.09;5020840;28;20053;-62
2023/12/13 06:32:55;;;;;;;0.70;0.70;;;;;;;11.02;100.00;98451.84;5022724;28;20108;-62
2023/12/13 06:35:20;;;;;;;0.75;0.75;;;;;;;11.03;100.00;98456.22;5024544;28;20069;-62
2023/12/13 06:37:46;;;;;;;0.70;0.70;;;;;;;11.02;100.00;98455.34;5015861;28;20049;-62
2023/12/13 06:40:14;;;;;;;0.70;0.70;;;;;;;11.01;100.00;98456.31;5008053;28;20093;-62
2023/12/13 06:42:40;;;;;;;0.70;0.70;;;;;;;11.02;100.00;98451.84;5015937;28;20026;-62
2023/12/13 06:45:06;;;;;;;0.70;0.70;;;;;;;11.00;100.00;98446.63;5026575;28;20034;-62
2023/12/13 06:47:31;;;;;;;0.80;0.80;;;;;;;11.01;100.00;98451.00;5008077;28;20075;-62
2023/12/13 06:49:57;;;;;;;0.73;0.73;;;;;;;11.01;100.00;98448.31;5007457;28;20026;-62
2023/12/13 06:52:22;;;;;;;0.70;0.70;;;;;;;11.06;100.00;98454.22;5009961;28;20034;-62
2023/12/13 06:54:48;;;;;;;0.63;0.63;;;;;;;11.03;100.00;98437.59;5010698;28;20486;-61
2023/12/13 06:57:13;;;;;;;0.70;0.70;;;;;;;11.00;100.00;98446.63;5023795;28;20049;-62
2023/12/13 06:59:39;;;;;;;0.77;0.77;;;;;;;11.00;100.00;98445.75;5026762;28;20029;-62
2023/12/13 07:02:06;;;;;;;0.70;0.70;;;;;;;11.03;100.00;98442.91;5026875;28;20129;-62
2023/12/13 07:04:32;;;;;;;0.70;0.70;;;;;;;11.04;100.00;98448.13;5022804;28;20092;-62
2023/12/13 07:06:58;;;;;;;0.80;0.80;;;;;;;11.00;100.00;98451.06;5024849;28;20125;-62
2023/12/13 07:09:24;;;;;;;0.70;0.70;;;;;;;11.05;100.00;98451.66;5025277;28;20101;-62
2023/12/13 07:11:50;;;;;;;0.70;0.70;;;;;;;11.06;100.00;98453.38;5024838;28;20025;-62
2023/12/13 07:14:15;;;;;;;0.70;0.70;;;;;;;11.06;100.00;98448.91;5011933;28;20039;-62
2023/12/13 07:16:43;;;;;;;0.70;0.70;;;;;;;11.03;100.00;98450.88;5020080;28;20025;-62
2023/12/13 07:19:09;;;;;;;0.77;0.77;;;;;;;11.05;100.00;98459.66;5027956;28;20056;-62
2023/12/13 07:21:35;;;;;;;0.75;0.75;;;;;;;11.05;100.00;98451.66;5026034;28;20098;-62
2023/12/13 07:24:00;;;;;;;0.70;0.70;;;;;;;11.06;100.00;98459.56;5025910;28;20093;-61
2023/12/13 07:26:26;;;;;;;0.70;0.70;;;;;;;11.11;100.00;98453.94;5027468;28;20030;-61
2023/12/13 07:28:51;;;;;;;0.63;0.63;;;;;;;11.08;100.00;98456.81;5026734;28;20045;-61
2023/12/13 07:31:16;;;;;;;0.70;0.70;;;;;;;11.06;100.00;98454.22;5026473;28;20025;-63
2023/12/13 07:33:42;;;;;;;0.70;0.70;;;;;;;11.08;100.00;98462.13;5029420;28;20026;-61
2023/12/13 07:36:08;;;;;;;0.70;0.70;;;;;;;11.10;100.00;98460.22;5030136;28;20029;-62
2023/12/13 07:38:33;;;;;;;0.70;0.70;;;;;;;11.12;100.00;98464.50;5028563;28;20025;-62
2023/12/13 07:40:59;;;;;;;0.60;0.60;;;;;;;11.10;100.00;98465.56;5024531;28;20025;-61
2023/12/13 07:43:26;;;;;;;0.70;0.70;;;;;;;11.11;100.00;98461.94;5027287;28;20080;-62
2023/12/13 07:45:52;;;;;;;0.70;0.70;;;;;;;11.09;100.00;98459.38;5029631;28;20030;-63
2023/12/13 07:48:24;;;;;;;0.70;0.70;;;;;;;11.14;100.00;98467.06;5027682;28;20048;-62
2023/12/13 07:50:51;;;;;;;0.70;0.70;;;;;;;11.12;100.00;98467.16;5008497;28;20157;-61
2023/12/13 07:53:16;;;;;;;0.70;0.70;;;;;;;11.14;100.00;98478.56;5018792;28;20028;-62
2023/12/13 07:55:42;;;;;;;0.70;0.70;;;;;;;11.19;100.00;98467.66;5002771;28;20029;-59
2023/12/13 07:58:08;;;;;;;0.60;0.60;;;;;;;11.16;100.00;98466.03;5012828;28;20080;-60
2023/12/13 08:00:33;;;;;;;0.70;0.70;;;;;;;11.19;100.00;98465.84;5007402;28;20032;-59
2023/12/13 08:02:59;;;;;;;0.60;0.60;;;;;;;11.27;100.00;98463.59;5008484;28;20030;-59
2023/12/13 08:05:25;;;;;;;0.70;0.70;;;;;;;11.31;100.00;98469.59;4993138;28;20034;-59
2023/12/13 08:07:50;;;;;;;0.65;0.65;;;;;;;11.31;100.00;98467.78;4992308;28;20046;-58
2023/12/13 08:10:16;;;;;;;0.70;0.70;;;;;;;11.32;100.00;98461.50;4992171;28;20557;-60
2023/12/13 08:12:42;;;;;;;0.65;0.65;;;;;;;11.34;100.00;98459.63;4994131;28;20088;-59
2023/12/13 08:15:11;;;;;;;0.60;0.60;;;;;;;11.37;100.00;98464.75;4994182;28;20034;-60
2023/12/13 08:17:37;;;;;;;0.70;0.70;;;;;;;11.32;100.00;98456.19;4991444;28;20022;-60
2023/12/13 08:20:02;;;;;;;0.70;0.70;;;;;;;11.34;100.00;98458.75;4991982;28;20026;-60
2023/12/13 08:22:28;;;;;;;0.70;0.70;;;;;;;11.42;100.00;98472.44;4991376;28;20082;-60
2023/12/13 08:24:54;;;;;;;0.60;0.60;;;;;;;11.50;100.00;98467.50;4993490;28;20041;-60
2023/12/13 08:27:19;;;;;;;0.70;0.70;;;;;;;11.55;100.00;98468.09;5009369;28;20555;-59
2023/12/13 08:29:44;;;;;;;0.60;0.60;;;;;;;11.56;100.00;98469.81;5012013;28;20029;-59
2023/12/13 08:32:10;;;;;;;0.70;0.70;;;;;;;11.56;100.00;98468.03;5010229;28;20040;-59
2023/12/13 08:34:35;;;;;;;0.70;0.70;;;;;;;11.59;100.00;98464.31;5011585;28;20058;-59
2023/12/13 08:37:01;;;;;;;0.60;0.60;;;;;;;11.64;100.00;98470.25;5011676;28;20034;-59
2023/12/13 08:39:27;;;;;;;0.70;0.70;;;;;;;11.69;100.00;98473.47;5010501;28;20038;-59
2023/12/13 08:41:53;;;;;;;0.60;0.60;;;;;;;11.70;100.00;98481.38;5009596;28;20071;-59
2023/12/13 08:44:18;;;;;;;0.65;0.65;;;;;;;11.70;100.00;98480.50;5011699;28;20116;-59
2023/12/13 08:46:45;;;;;;;0.70;0.70;;;;;;;11.65;100.00;98475.47;5011399;28;20790;-59
2023/12/13 08:49:11;;;;;;;0.60;0.60;;;;;;;11.66;100.00;98471.00;5008061;28;20038;-59
2023/12/13 08:51:36;;;;;;;0.50;0.50;;;;;;;12.12;100.00;98480.53;4992164;28;20026;-59
2023/12/13 08:54:03;;;;;;;0.70;0.70;;;;;;;12.13;100.00;98471.56;4994203;28;20076;-59
2023/12/13 08:56:29;;;;;;;0.70;0.70;;;;;;;12.09;100.00;98467.38;5004649;28;20025;-59
2023/12/13 08:58:54;;;;;;;0.60;0.60;;;;;;;12.03;100.00;98459.75;5011451;28;20061;-59
2023/12/13 09:01:20;;;;;;;0.70;0.70;;;;;;;12.05;100.00;98470.31;5008959;28;20034;-59
2023/12/13 09:03:45;;;;;;;0.60;0.60;;;;;;;12.00;100.00;98465.28;5010552;28;20470;-59
2023/12/13 09:06:13;;;;;;;0.60;0.60;;;;;;;11.94;100.00;98479.00;5009914;28;20763;-59
2023/12/13 09:08:38;;;;;;;0.70;0.70;;;;;;;11.96;100.00;98473.59;5009600;28;20540;-59
2023/12/13 09:11:03;;;;;;;0.70;0.70;;;;;;;11.97;100.00;98467.28;4999085;28;20050;-59
2023/12/13 09:13:29;;;;;;;0.60;0.60;;;;;;;11.97;100.00;98468.16;4990785;28;20022;-60
2023/12/13 09:15:55;;;;;;;0.60;0.60;;;;;;;11.99;100.00;98476.91;4990791;28;20113;-59
2023/12/13 09:18:20;;;;;;;0.60;0.60;;;;;;;12.07;100.00;98477.28;4990387;28;20406;-60
2023/12/13 09:20:46;;;;;;;0.70;0.70;;;;;;;12.21;100.00;98477.25;4994308;28;20026;-59
2023/12/13 09:23:22;;;;;;;0.65;0.65;;;;;;;12.37;100.00;98479.81;5010337;28;20030;-59
2023/12/13 09:25:48;;;;;;;0.70;0.70;;;;;;;12.39;100.00;98465.41;5010680;28;20034;-59
2023/12/13 09:28:13;;;;;;;0.60;0.60;;;;;;;12.34;100.00;98480.84;5007431;28;20029;-59
2023/12/13 09:30:39;;;;;;;0.70;0.70;;;;;;;12.89;100.00;98468.31;5010367;28;20026;-59
2023/12/13 09:33:04;;;;;;;0.50;0.50;;;;;;;14.68;100.00;98476.13;5005162;28;20055;-59
2023/12/13 09:35:29;;;;;;;0.60;0.60;;;;;;;15.41;99.00;98469.69;4990718;28;20137;-59
2023/12/13 09:37:55;;;;;;;0.60;0.60;;;;;;;14.95;95.08;98466.06;4990174;28;20124;-59
2023/12/13 09:40:20;;;;;;;0.60;0.60;;;;;;;14.29;97.70;98471.00;4991259;28;20148;-59
2023/12/13 09:42:46;;;;;;;0.50;0.50;;;;;;;13.90;100.00;98479.16;4997011;28;20030;-59
2023/12/13 09:45:22;;;;;;;0.60;0.60;;;;;;;13.83;100.00;98468.03;5009751;28;20029;-59
2023/12/13 09:47:49;;;;;;;0.50;0.50;;;;;;;15.14;100.00;98465.53;5011436;28;20025;-59
2023/12/13 09:50:15;;;;;;;0.60;0.60;;;;;;;15.74;90.61;98468.88;5007026;28;20539;-60
2023/12/13 09:52:43;;;;;;;0.60;0.60;;;;;;;14.85;91.99;98486.44;5010427;28;20025;-60
2023/12/13 09:55:09;;;;;;;0.60;0.60;;;;;;;14.16;95.28;98484.38;5009675;28;20038;-60
2023/12/13 09:57:34;;;;;;;0.60;0.60;;;;;;;13.63;98.88;98481.94;5003785;28;20026;-60
2023/12/13 10:00:00;;;;;;;0.60;0.60;;;;;;;13.23;100.00;98487.44;5009871;28;20029;-59
2023/12/13 10:02:26;;;;;;;0.60;0.60;;;;;;;13.29;100.00;98489.69;5000002;28;20022;-59
2023/12/13 10:04:52;;;;;;;0.60;0.60;;;;;;;13.29;100.00;98492.34;5007138;28;20156;-60
2023/12/13 10:07:18;;;;;;;0.60;0.60;;;;;;;13.06;100.00;98486.72;5006801;28;20057;-59
2023/12/13 10:09:44;;;;;;;0.50;0.50;;;;;;;13.45;100.00;98490.34;4990563;28;20037;-60
2023/12/13 10:12:12;;;;;;;0.70;0.70;;;;;;;13.34;100.00;98479.56;4988462;28;20410;-59
2023/12/13 10:14:38;;;;;;;0.70;0.70;;;;;;;13.28;100.00;98475.47;4995369;28;20030;-62
2023/12/13 10:17:04;;;;;;;0.60;0.60;;;;;;;13.19;100.00;98471.59;5001341;28;20085;-62
2023/12/13 10:19:30;;;;;;;0.60;0.60;;;;;;;13.20;100.00;98472.47;5004414;28;20029;-62
2023/12/13 10:21:56;;;;;;;0.50;0.50;;;;;;;13.13;100.00;98466.69;5013486;28;20051;-62
2023/12/13 10:24:23;;;;;;;0.60;0.60;;;;;;;13.09;100.00;98469.66;5016889;28;20041;-62
2023/12/13 10:26:50;;;;;;;0.60;0.60;;;;;;;12.99;100.00;98455.19;5006473;28;20421;-62
2023/12/13 10:29:18;;;;;;;0.60;0.60;;;;;;;12.98;100.00;98458.84;5012229;28;20029;-62
2023/12/13 10:31:47;;;;;;;0.50;0.50;;;;;;;12.89;100.00;98462.09;5019618;28;20087;-63
2023/12/13 10:34:13;;;;;;;0.60;0.60;;;;;;;12.83;100.00;98462.53;5002748;28;20073;-62
2023/12/13 10:36:39;;;;;;;0.60;0.60;;;;;;;12.93;100.00;98458.28;5004059;28;20470;-63
2023/12/13 10:39:07;;;;;;;0.60;0.60;;;;;;;12.95;100.00;98451.88;5004134;28;20113;-62
2023/12/13 10:41:33;;;;;;;0.60;0.60;;;;;;;12.86;100.00;98447.16;5006288;28;20030;-62
2023/12/13 10:43:58;;;;;;;0.60;0.60;;;;;;;12.78;100.00;98449.47;5005475;28;20058;-62
2023/12/13 10:46:33;;;;;;;0.60;0.60;;;;;;;12.86;100.00;98447.16;5014848;28;20037;-62
2023/12/13 10:48:59;;;;;;;0.60;0.60;;;;;;;12.84;100.00;98451.75;5020687;28;20433;-62
2023/12/13 10:51:27;;;;;;;0.60;0.60;;;;;;;12.82;100.00;98448.31;5024358;28;20025;-62
2023/12/13 10:53:55;;;;;;;0.60;0.60;;;;;;;12.84;100.00;98445.53;5020954;28;20028;-63
2023/12/13 10:56:21;;;;;;;0.60;0.60;;;;;;;12.83;100.00;98447.34;5013749;28;20060;-62
2023/12/13 10:58:47;;;;;;;0.60;0.60;;;;;;;12.78;100.00;98452.13;5024731;28;20037;-62
2023/12/13 11:01:14;;;;;;;0.50;0.50;;;;;;;12.77;100.00;98445.09;5018773;28;20065;-62
2023/12/13 11:04:01;;;;;;;0.60;0.60;;;;;;;12.69;100.00;98451.88;5018939;28;20030;-61
2023/12/13 11:06:27;;;;;;;0.60;0.60;;;;;;;12.61;100.00;98452.41;5009936;28;20030;-62
2023/12/13 11:08:52;;;;;;;0.60;0.60;;;;;;;12.57;100.00;98455.38;5003914;28;20030;-62
2023/12/13 11:11:18;;;;;;;0.60;0.60;;;;;;;12.54;100.00;98448.41;5011970;28;20037;-62
2023/12/13 11:13:47;;;;;;;0.60;0.60;;;;;;;12.60;100.00;98448.00;5023326;28;20375;-62
2023/12/13 11:16:14;;;;;;;0.60;0.60;;;;;;;12.59;100.00;98432.97;5023512;28;20030;-62
2023/12/13 11:18:40;;;;;;;0.50;0.50;;;;;;;12.71;100.00;98444.66;5006443;28;20098;-62